createdAt,value
2023-05-05T00:00:04.233Z,32.81
2023-05-05T00:01:04.274Z,32.79
2023-05-05T00:02:04.288Z,32.79
2023-05-05T00:03:04.335Z,32.79
2023-05-05T00:04:04.269Z,32.78
2023-05-05T00:05:04.258Z,32.77
2023-05-05T00:06:04.310Z,32.79
2023-05-05T00:07:04.309Z,32.77
2023-05-05T00:08:04.264Z,32.80
2023-05-05T00:09:04.300Z,32.81
2023-05-05T00:10:04.240Z,32.81
2023-05-05T00:11:04.283Z,32.83
2023-05-05T00:12:04.279Z,32.82
2023-05-05T00:13:04.282Z,32.82
2023-05-05T00:14:04.261Z,32.80
2023-05-05T00:15:04.247Z,32.79
2023-05-05T00:16:04.310Z,32.79
2023-05-05T00:17:04.401Z,32.75
2023-05-05T00:18:04.332Z,32.77
2023-05-05T00:19:04.265Z,32.77
2023-05-05T00:20:04.295Z,32.77
2023-05-05T00:21:04.311Z,32.73
2023-05-05T00:22:04.360Z,32.74
2023-05-05T00:23:04.265Z,32.76
2023-05-05T00:24:04.278Z,32.74
2023-05-05T00:25:04.249Z,32.78
2023-05-05T00:26:04.266Z,32.78
2023-05-05T00:27:04.316Z,32.78
2023-05-05T00:28:04.250Z,32.78
2023-05-05T00:29:04.288Z,32.75
2023-05-05T00:30:04.265Z,32.74
2023-05-05T00:31:04.287Z,32.74
2023-05-05T00:32:04.283Z,32.75
2023-05-05T00:33:04.399Z,32.76
2023-05-05T00:34:04.273Z,32.74
2023-05-05T00:35:04.246Z,32.75
2023-05-05T00:36:04.281Z,32.72
2023-05-05T00:37:04.266Z,32.75
2023-05-05T00:38:04.352Z,32.78
2023-05-05T00:39:04.251Z,32.78
2023-05-05T00:40:04.269Z,32.79
2023-05-05T00:41:04.278Z,32.79
2023-05-05T00:42:04.310Z,32.80
2023-05-05T00:43:04.288Z,32.82
2023-05-05T00:44:04.255Z,32.81
2023-05-05T00:45:04.286Z,32.84
2023-05-05T00:46:04.304Z,32.86
2023-05-05T00:47:04.438Z,32.85
2023-05-05T00:48:04.325Z,32.84
2023-05-05T00:49:04.311Z,32.84
2023-05-05T00:50:04.302Z,32.82
2023-05-05T00:51:04.268Z,32.81
2023-05-05T00:52:04.251Z,32.80
2023-05-05T00:53:04.258Z,32.83
2023-05-05T00:54:04.253Z,32.83
2023-05-05T00:55:04.245Z,32.84
2023-05-05T00:56:04.238Z,32.83
2023-05-05T00:57:04.268Z,32.80
2023-05-05T00:58:04.396Z,32.81
2023-05-05T00:59:04.264Z,32.83
2023-05-05T01:00:04.250Z,32.85
2023-05-05T01:01:04.257Z,32.85
2023-05-05T01:02:04.386Z,32.87
2023-05-05T01:03:04.377Z,32.87
2023-05-05T01:04:04.271Z,32.90
2023-05-05T01:05:04.282Z,32.91
2023-05-05T01:06:04.362Z,32.87
2023-05-05T01:07:04.289Z,32.89
2023-05-05T01:08:04.253Z,32.86
2023-05-05T01:09:04.276Z,32.88
2023-05-05T01:10:18.088Z,32.88
2023-05-05T01:11:05.280Z,32.91
2023-05-05T01:12:04.265Z,32.91
2023-05-05T01:13:04.287Z,32.92
2023-05-05T01:14:04.258Z,32.91
2023-05-05T01:15:04.239Z,32.93
2023-05-05T01:16:04.227Z,32.93
2023-05-05T01:17:04.201Z,32.92
2023-05-05T01:18:04.350Z,32.92
2023-05-05T01:19:04.208Z,32.94
2023-05-05T01:20:04.210Z,32.95
2023-05-05T01:21:04.209Z,32.95
2023-05-05T01:22:04.168Z,32.93
2023-05-05T01:23:04.188Z,32.95
2023-05-05T01:24:04.161Z,32.92
2023-05-05T01:25:04.149Z,32.90
2023-05-05T01:26:04.154Z,32.92
2023-05-05T01:27:04.125Z,32.88
2023-05-05T01:28:04.149Z,32.91
2023-05-05T01:29:04.182Z,32.94
2023-05-05T01:30:04.143Z,32.95
2023-05-05T01:31:04.139Z,32.95
2023-05-05T01:32:04.181Z,32.94
2023-05-05T01:33:04.140Z,32.92
2023-05-05T01:34:04.090Z,32.91
2023-05-05T01:35:04.189Z,32.93
2023-05-05T01:36:04.066Z,32.93
2023-05-05T01:37:04.058Z,32.93
2023-05-05T01:38:04.080Z,32.89
2023-05-05T01:39:04.119Z,32.88
2023-05-05T01:40:04.140Z,32.91
2023-05-05T01:41:04.100Z,32.91
2023-05-05T01:42:04.075Z,32.92
2023-05-05T01:43:04.065Z,32.93
2023-05-05T01:44:04.083Z,32.96
2023-05-05T01:45:04.100Z,32.99
2023-05-05T01:46:04.135Z,32.95
2023-05-05T01:47:04.076Z,32.94
2023-05-05T01:48:04.143Z,32.95
2023-05-05T01:49:04.085Z,32.96
2023-05-05T01:50:04.095Z,32.96
2023-05-05T01:51:04.106Z,32.96
2023-05-05T01:52:04.110Z,32.96
2023-05-05T01:53:04.092Z,32.95
2023-05-05T01:54:04.113Z,32.95
2023-05-05T01:55:04.150Z,32.97
2023-05-05T01:56:04.093Z,32.96
2023-05-05T01:57:04.113Z,32.95
2023-05-05T01:58:04.330Z,32.93
2023-05-05T01:59:04.099Z,32.92
2023-05-05T02:00:04.114Z,32.93
2023-05-05T02:01:04.143Z,32.94
2023-05-05T02:02:04.166Z,32.93
2023-05-05T02:03:04.232Z,32.95
2023-05-05T02:04:04.100Z,32.91
2023-05-05T02:05:04.108Z,32.91
2023-05-05T02:06:04.118Z,32.89
2023-05-05T02:07:04.104Z,32.86
2023-05-05T02:08:04.135Z,32.87
2023-05-05T02:09:04.159Z,32.87
2023-05-05T02:10:04.105Z,32.87
2023-05-05T02:11:04.115Z,32.88
2023-05-05T02:12:04.126Z,32.85
2023-05-05T02:13:04.411Z,32.89
2023-05-05T02:14:04.223Z,32.90
2023-05-05T02:15:04.121Z,32.87
2023-05-05T02:16:04.145Z,32.88
2023-05-05T02:17:04.140Z,32.88
2023-05-05T02:18:04.161Z,32.88
2023-05-05T02:19:04.126Z,32.87
2023-05-05T02:20:04.150Z,32.85
2023-05-05T02:21:04.157Z,32.83
2023-05-05T02:22:04.136Z,32.84
2023-05-05T02:23:04.170Z,32.83
2023-05-05T02:24:04.149Z,32.81
2023-05-05T02:25:04.141Z,32.78
2023-05-05T02:26:04.146Z,32.80
2023-05-05T02:27:04.139Z,32.77
2023-05-05T02:28:04.149Z,32.78
2023-05-05T02:29:04.203Z,32.79
2023-05-05T02:30:04.157Z,32.78
2023-05-05T02:31:04.225Z,32.75
2023-05-05T02:32:04.180Z,32.72
2023-05-05T02:33:04.166Z,32.74
2023-05-05T02:34:04.178Z,32.74
2023-05-05T02:35:04.184Z,32.75
2023-05-05T02:36:04.198Z,32.77
2023-05-05T02:37:04.156Z,32.75
2023-05-05T02:38:04.200Z,32.74
2023-05-05T02:39:04.179Z,32.73
2023-05-05T02:40:04.225Z,32.74
2023-05-05T02:41:04.194Z,32.76
2023-05-05T02:42:04.198Z,32.72
2023-05-05T02:43:04.226Z,32.72
2023-05-05T02:44:04.234Z,32.67
2023-05-05T02:45:04.203Z,32.64
2023-05-05T02:46:04.279Z,32.66
2023-05-05T02:47:04.237Z,32.69
2023-05-05T02:48:04.359Z,32.69
2023-05-05T02:49:04.249Z,32.68
2023-05-05T02:50:04.248Z,32.70
2023-05-05T02:51:04.287Z,32.70
2023-05-05T02:52:04.249Z,32.68
2023-05-05T02:53:04.283Z,32.70
2023-05-05T02:54:04.328Z,32.71
2023-05-05T02:55:04.289Z,32.73
2023-05-05T02:56:04.290Z,32.72
2023-05-05T02:57:04.294Z,32.73
2023-05-05T02:58:04.376Z,32.72
2023-05-05T02:59:04.336Z,32.71
2023-05-05T03:00:04.376Z,32.70
2023-05-05T03:01:04.402Z,32.70
2023-05-05T03:02:04.417Z,32.71
2023-05-05T03:03:04.443Z,32.72
2023-05-05T03:04:04.407Z,32.69
2023-05-05T03:05:04.426Z,32.69
2023-05-05T03:06:04.444Z,32.67
2023-05-05T03:07:04.454Z,32.68
2023-05-05T03:08:04.461Z,32.68
2023-05-05T03:09:04.478Z,32.67
2023-05-05T03:10:04.504Z,32.66
2023-05-05T03:11:04.515Z,32.65
2023-05-05T03:12:04.491Z,32.66
2023-05-05T03:13:04.529Z,32.65
2023-05-05T03:14:04.492Z,32.69
2023-05-05T03:15:04.534Z,32.68
2023-05-05T03:16:04.571Z,32.64
2023-05-05T03:17:04.507Z,32.66
2023-05-05T03:18:04.569Z,32.66
2023-05-05T03:19:04.545Z,32.67
2023-05-05T03:20:04.558Z,32.66
2023-05-05T03:21:04.567Z,32.67
2023-05-05T03:22:04.537Z,32.65
2023-05-05T03:23:04.566Z,32.65
2023-05-05T03:24:04.540Z,32.65
2023-05-05T03:25:04.544Z,32.69
2023-05-05T03:26:04.561Z,32.67
2023-05-05T03:27:04.568Z,32.69
2023-05-05T03:28:04.590Z,32.67
2023-05-05T03:29:04.591Z,32.67
2023-05-05T03:30:04.652Z,32.66
2023-05-05T03:31:04.579Z,32.67
2023-05-05T03:32:04.670Z,32.67
2023-05-05T03:33:04.923Z,32.65
2023-05-05T03:34:04.603Z,32.65
2023-05-05T03:35:04.648Z,32.69
2023-05-05T03:36:04.628Z,32.68
2023-05-05T03:37:04.637Z,32.67
2023-05-05T03:38:04.664Z,32.68
2023-05-05T03:39:04.621Z,32.69
2023-05-05T03:40:04.658Z,32.70
2023-05-05T03:41:04.661Z,32.68
2023-05-05T03:42:04.689Z,32.71
2023-05-05T03:43:04.669Z,32.72
2023-05-05T03:44:04.661Z,32.71
2023-05-05T03:45:04.658Z,32.73
2023-05-05T03:46:04.727Z,32.70
2023-05-05T03:47:04.675Z,32.70
2023-05-05T03:48:04.824Z,32.70
2023-05-05T03:49:04.660Z,32.72
2023-05-05T03:50:04.700Z,32.73
2023-05-05T03:51:04.691Z,32.70
2023-05-05T03:52:04.668Z,32.71
2023-05-05T03:53:04.680Z,32.69
2023-05-05T03:54:04.690Z,32.69
2023-05-05T03:55:04.718Z,32.68
2023-05-05T03:56:04.741Z,32.70
2023-05-05T03:57:04.726Z,32.68
2023-05-05T03:58:04.725Z,32.71
2023-05-05T03:59:04.755Z,32.72
2023-05-05T04:00:04.785Z,32.72
2023-05-05T04:01:04.752Z,32.68
2023-05-05T04:02:04.859Z,32.68
2023-05-05T04:03:04.971Z,32.68
2023-05-05T04:04:04.813Z,32.69
2023-05-05T04:05:04.794Z,32.70
2023-05-05T04:06:04.778Z,32.72
2023-05-05T04:07:04.762Z,32.74
2023-05-05T04:08:04.810Z,32.72
2023-05-05T04:09:04.774Z,32.72
2023-05-05T04:10:04.806Z,32.73
2023-05-05T04:11:04.820Z,32.75
2023-05-05T04:12:04.931Z,32.74
2023-05-05T04:13:04.914Z,32.74
2023-05-05T04:14:04.827Z,32.75
2023-05-05T04:15:04.835Z,32.73
2023-05-05T04:16:04.869Z,32.72
2023-05-05T04:17:04.843Z,32.70
2023-05-05T04:18:04.918Z,32.71
2023-05-05T04:19:04.898Z,32.72
2023-05-05T04:20:04.880Z,32.71
2023-05-05T04:21:04.903Z,32.72
2023-05-05T04:22:04.947Z,32.72
2023-05-05T04:23:04.947Z,32.72
2023-05-05T04:24:04.955Z,32.75
2023-05-05T04:25:05.030Z,32.74
2023-05-05T04:26:04.991Z,32.77
2023-05-05T04:27:04.973Z,32.75
2023-05-05T04:28:05.397Z,32.74
2023-05-05T04:29:05.054Z,32.75
2023-05-05T04:30:05.147Z,32.77
2023-05-05T04:31:05.189Z,32.73
2023-05-05T04:32:05.053Z,32.75
2023-05-05T04:33:05.090Z,32.74
2023-05-05T04:34:05.123Z,32.76
2023-05-05T04:35:05.103Z,32.74
2023-05-05T04:36:05.097Z,32.76
2023-05-05T04:37:05.102Z,32.73
2023-05-05T04:38:05.135Z,32.76
2023-05-05T04:39:05.159Z,32.76
2023-05-05T04:40:05.239Z,32.78
2023-05-05T04:41:05.243Z,32.79
2023-05-05T04:42:05.210Z,32.77
2023-05-05T04:43:05.225Z,32.78
2023-05-05T04:44:05.202Z,32.75
2023-05-05T04:45:05.207Z,32.75
2023-05-05T04:46:05.403Z,32.75
2023-05-05T04:47:05.241Z,32.76
2023-05-05T04:48:05.280Z,32.76
2023-05-05T04:49:05.232Z,32.75
2023-05-05T04:50:05.298Z,32.75
2023-05-05T04:51:05.339Z,32.76
2023-05-05T04:52:05.286Z,32.78
2023-05-05T04:53:05.289Z,32.78
2023-05-05T04:54:05.305Z,32.78
2023-05-05T04:55:05.284Z,32.76
2023-05-05T04:56:05.354Z,32.80
2023-05-05T04:57:05.324Z,32.78
2023-05-05T04:58:05.356Z,32.78
2023-05-05T04:59:05.384Z,32.76
2023-05-05T05:00:05.613Z,32.79
2023-05-05T05:01:05.403Z,32.79
2023-05-05T05:02:05.473Z,32.78
2023-05-05T05:03:05.586Z,32.80
2023-05-05T05:04:05.510Z,32.80
2023-05-05T05:05:05.470Z,32.82
2023-05-05T05:06:05.485Z,32.80
2023-05-05T05:07:05.487Z,32.84
2023-05-05T05:08:05.514Z,32.81
2023-05-05T05:09:05.512Z,32.84
2023-05-05T05:10:05.624Z,32.85
2023-05-05T05:11:05.608Z,32.86
2023-05-05T05:12:05.574Z,32.83
2023-05-05T05:13:05.659Z,32.85
2023-05-05T05:14:05.588Z,32.87
2023-05-05T05:15:05.623Z,32.90
2023-05-05T05:16:05.688Z,32.91
2023-05-05T05:17:05.625Z,32.95
2023-05-05T05:18:05.918Z,32.96
2023-05-05T05:19:05.683Z,32.97
2023-05-05T05:20:05.710Z,32.97
2023-05-05T05:21:05.769Z,32.98
2023-05-05T05:22:05.744Z,32.93
2023-05-05T05:23:05.841Z,32.94
2023-05-05T05:24:05.816Z,32.91
2023-05-05T05:25:05.808Z,32.92
2023-05-05T05:26:05.817Z,32.96
2023-05-05T05:27:07.328Z,32.97
2023-05-05T05:28:10.517Z,33.00
2023-05-05T05:29:06.794Z,33.02
2023-05-05T05:30:05.965Z,33.06
2023-05-05T05:31:05.827Z,33.14
2023-05-05T05:32:05.829Z,33.20
2023-05-05T05:33:05.840Z,34.11
2023-05-05T05:34:05.798Z,34.25
2023-05-05T05:35:05.755Z,35.45
2023-05-05T05:36:05.780Z,35.51
2023-05-05T05:37:05.723Z,35.31
2023-05-05T05:38:05.723Z,34.88
2023-05-05T05:39:05.740Z,34.74
2023-05-05T05:40:05.777Z,34.81
2023-05-05T05:41:05.779Z,34.70
2023-05-05T05:42:05.707Z,34.70
2023-05-05T05:43:05.877Z,34.82
2023-05-05T05:44:05.678Z,34.73
2023-05-05T05:45:05.817Z,34.70
2023-05-05T05:46:08.309Z,34.70
2023-05-05T05:47:05.901Z,34.81
2023-05-05T05:48:05.710Z,35.07
2023-05-05T05:49:05.660Z,35.20
2023-05-05T05:50:05.805Z,35.73
2023-05-05T05:51:05.785Z,35.74
2023-05-05T05:52:05.635Z,35.17
2023-05-05T05:53:05.665Z,35.08
2023-05-05T05:54:05.919Z,35.17
2023-05-05T05:55:05.734Z,34.99
2023-05-05T05:56:05.650Z,35.00
2023-05-05T05:57:05.621Z,35.06
2023-05-05T05:58:05.594Z,34.90
2023-05-05T05:59:05.590Z,34.74
2023-05-05T06:00:05.750Z,34.74
2023-05-05T06:01:05.663Z,34.59
2023-05-05T06:02:05.646Z,34.51
2023-05-05T06:03:05.778Z,34.53
2023-05-05T06:04:05.577Z,34.65
2023-05-05T06:05:05.542Z,34.99
2023-05-05T06:06:05.530Z,35.40
2023-05-05T06:07:05.967Z,35.38
2023-05-05T06:08:05.517Z,35.45
2023-05-05T06:09:05.926Z,35.32
2023-05-05T06:10:19.011Z,35.69
2023-05-05T06:11:06.507Z,35.66
2023-05-05T06:12:05.480Z,35.42
2023-05-05T06:13:05.571Z,35.49
2023-05-05T06:14:05.485Z,35.35
2023-05-05T06:15:05.475Z,35.23
2023-05-05T06:16:05.535Z,35.35
2023-05-05T06:17:05.459Z,35.18
2023-05-05T06:18:05.510Z,35.17
2023-05-05T06:19:05.486Z,35.11
2023-05-05T06:20:05.471Z,35.12
2023-05-05T06:21:05.433Z,35.08
2023-05-05T06:22:05.427Z,35.04
2023-05-05T06:23:05.473Z,34.99
2023-05-05T06:24:05.411Z,34.97
2023-05-05T06:25:05.934Z,35.04
2023-05-05T06:26:05.445Z,35.11
2023-05-05T06:27:05.451Z,34.92
2023-05-05T06:28:05.472Z,35.09
2023-05-05T06:29:05.976Z,34.93
2023-05-05T06:30:05.598Z,35.00
2023-05-05T06:31:05.534Z,35.08
2023-05-05T06:32:05.631Z,35.16
2023-05-05T06:33:05.705Z,35.15
2023-05-05T06:34:05.661Z,35.06
2023-05-05T06:35:05.649Z,34.86
2023-05-05T06:36:05.783Z,34.73
2023-05-05T06:37:05.846Z,34.68
2023-05-05T06:38:05.786Z,34.82
2023-05-05T06:39:05.944Z,34.80
2023-05-05T06:40:06.043Z,34.71
2023-05-05T06:41:05.948Z,34.75
2023-05-05T06:42:05.992Z,34.84
2023-05-05T06:43:05.967Z,34.77
2023-05-05T06:44:06.079Z,34.75
2023-05-05T06:45:06.072Z,34.69
2023-05-05T06:46:06.114Z,34.62
2023-05-05T06:47:06.343Z,34.70
2023-05-05T06:48:06.344Z,34.77
2023-05-05T06:49:06.249Z,34.77
2023-05-05T06:50:06.551Z,34.62
2023-05-05T06:51:06.304Z,34.62
2023-05-05T06:52:06.335Z,34.60
2023-05-05T06:53:06.372Z,34.60
2023-05-05T06:54:06.488Z,34.61
2023-05-05T06:55:06.960Z,34.61
2023-05-05T06:56:06.492Z,34.59
2023-05-05T06:57:06.545Z,34.49
2023-05-05T06:58:06.560Z,34.27
2023-05-05T06:59:06.637Z,34.06
2023-05-05T07:00:07.030Z,34.00
2023-05-05T07:01:06.760Z,33.94
2023-05-05T07:02:06.718Z,33.72
2023-05-05T07:03:06.752Z,33.70
2023-05-05T07:04:07.135Z,33.62
2023-05-05T07:05:06.796Z,33.61
2023-05-05T07:06:06.820Z,33.57
2023-05-05T07:07:06.867Z,33.51
2023-05-05T07:08:07.011Z,33.47
2023-05-05T07:09:06.958Z,33.44
2023-05-05T07:10:07.371Z,33.39
2023-05-05T07:11:07.037Z,33.30
2023-05-05T07:12:07.089Z,33.29
2023-05-05T07:13:07.143Z,33.26
2023-05-05T07:14:07.536Z,33.34
2023-05-05T07:15:19.396Z,33.27
2023-05-05T07:16:08.238Z,33.24
2023-05-05T07:17:07.192Z,33.14
2023-05-05T07:18:07.209Z,33.13
2023-05-05T07:19:07.556Z,33.09
2023-05-05T07:20:07.297Z,33.14
2023-05-05T07:21:07.151Z,33.19
2023-05-05T07:22:07.176Z,33.17
2023-05-05T07:23:07.247Z,33.12
2023-05-05T07:24:07.140Z,33.12
2023-05-05T07:25:07.124Z,33.05
2023-05-05T07:26:07.211Z,33.05
2023-05-05T07:27:07.219Z,33.09
2023-05-05T07:28:07.176Z,33.08
2023-05-05T07:29:07.966Z,33.15
2023-05-05T07:30:12.374Z,33.47
2023-05-05T07:31:08.429Z,33.55
2023-05-05T07:32:07.323Z,34.13
2023-05-05T07:33:07.295Z,34.05
2023-05-05T07:34:07.551Z,34.07
2023-05-05T07:35:07.350Z,34.46
2023-05-05T07:36:07.377Z,34.31
2023-05-05T07:37:07.268Z,34.07
2023-05-05T07:38:08.658Z,33.97
2023-05-05T07:39:07.331Z,33.91
2023-05-05T07:40:07.531Z,33.95
2023-05-05T07:41:07.369Z,33.92
2023-05-05T07:42:07.552Z,33.94
2023-05-05T07:43:07.528Z,33.80
2023-05-05T07:44:07.626Z,33.69
2023-05-05T07:45:07.597Z,33.62
2023-05-05T07:46:07.677Z,33.62
2023-05-05T07:47:07.736Z,33.68
2023-05-05T07:48:07.831Z,33.67
2023-05-05T07:49:07.824Z,33.65
2023-05-05T07:50:08.008Z,33.75
2023-05-05T07:51:08.023Z,33.73
2023-05-05T07:52:08.068Z,33.75
2023-05-05T07:53:14.559Z,33.70
2023-05-05T07:54:09.089Z,33.71
2023-05-05T07:55:08.099Z,33.68
2023-05-05T07:56:08.042Z,33.73
2023-05-05T07:57:08.073Z,33.62
2023-05-05T07:58:08.098Z,33.58
2023-05-05T07:59:08.022Z,33.53
2023-05-05T08:00:08.236Z,33.55
2023-05-05T08:01:08.013Z,33.50
2023-05-05T08:02:08.041Z,33.48
2023-05-05T08:03:11.287Z,33.41
2023-05-05T08:04:09.075Z,33.38
2023-05-05T08:05:08.405Z,33.34
2023-05-05T08:06:08.033Z,33.32
2023-05-05T08:07:08.052Z,33.33
2023-05-05T08:08:08.036Z,33.35
2023-05-05T08:09:08.049Z,33.36
2023-05-05T08:10:08.982Z,33.36
2023-05-05T08:11:08.009Z,33.48
2023-05-05T08:12:08.032Z,33.38
2023-05-05T08:13:08.003Z,33.38
2023-05-05T08:14:07.992Z,33.42
2023-05-05T08:15:08.493Z,33.44
2023-05-05T08:16:08.023Z,33.47
2023-05-05T08:17:08.044Z,33.69
2023-05-05T08:18:07.969Z,33.54
2023-05-05T08:19:17.546Z,33.49
2023-05-05T08:20:09.038Z,33.81
2023-05-05T08:21:07.946Z,33.76
2023-05-05T08:22:07.977Z,33.76
2023-05-05T08:23:07.986Z,33.74
2023-05-05T08:24:07.919Z,33.68
2023-05-05T08:25:08.100Z,34.02
2023-05-05T08:26:07.903Z,36.25
2023-05-05T08:27:07.930Z,36.77
2023-05-05T08:28:07.947Z,36.77
2023-05-05T08:29:07.917Z,36.33
2023-05-05T08:30:07.879Z,35.54
2023-05-05T08:31:08.051Z,35.12
2023-05-05T08:32:07.848Z,34.62
2023-05-05T08:33:07.889Z,34.46
2023-05-05T08:34:07.868Z,34.27
2023-05-05T08:35:08.302Z,34.09
2023-05-05T08:36:07.873Z,34.02
2023-05-05T08:37:07.869Z,34.05
2023-05-05T08:38:07.889Z,34.01
2023-05-05T08:39:08.192Z,33.82
2023-05-05T08:40:07.823Z,34.47
2023-05-05T08:41:07.789Z,35.43
2023-05-05T08:42:07.824Z,36.04
2023-05-05T08:43:07.830Z,35.61
2023-05-05T08:44:07.978Z,35.49
2023-05-05T08:45:08.285Z,35.43
2023-05-05T08:46:07.836Z,35.24
2023-05-05T08:47:07.905Z,34.98
2023-05-05T08:48:07.792Z,35.12
2023-05-05T08:49:07.736Z,35.15
2023-05-05T08:50:07.747Z,34.71
2023-05-05T08:51:07.717Z,34.44
2023-05-05T08:52:07.730Z,34.45
2023-05-05T08:53:07.704Z,34.64
2023-05-05T08:54:07.761Z,34.63
2023-05-05T08:55:07.908Z,34.65
2023-05-05T08:56:07.810Z,34.76
2023-05-05T08:57:07.820Z,34.64
2023-05-05T08:58:07.754Z,34.58
2023-05-05T08:59:07.755Z,34.28
2023-05-05T09:00:07.839Z,34.41
2023-05-05T09:01:07.853Z,34.44
2023-05-05T09:02:08.016Z,34.23
2023-05-05T09:03:08.074Z,34.51
2023-05-05T09:04:07.900Z,35.09
2023-05-05T09:05:08.108Z,35.21
2023-05-05T09:06:07.873Z,34.83
2023-05-05T09:07:08.021Z,34.81
2023-05-05T09:08:07.947Z,34.78
2023-05-05T09:09:07.952Z,34.54
2023-05-05T09:10:07.942Z,34.47
2023-05-05T09:11:08.594Z,34.85
2023-05-05T09:12:07.973Z,34.68
2023-05-05T09:13:08.064Z,34.75
2023-05-05T09:14:08.033Z,34.67
2023-05-05T09:15:08.241Z,34.83
2023-05-05T09:16:08.040Z,34.64
2023-05-05T09:17:08.195Z,34.46
2023-05-05T09:18:08.217Z,34.34
2023-05-05T09:19:08.594Z,34.22
2023-05-05T09:20:08.071Z,34.30
2023-05-05T09:21:08.082Z,34.43
2023-05-05T09:22:08.193Z,34.25
2023-05-05T09:23:08.180Z,34.33
2023-05-05T09:24:09.255Z,34.25
2023-05-05T09:25:08.436Z,34.64
2023-05-05T09:26:08.171Z,34.65
2023-05-05T09:27:08.229Z,34.57
2023-05-05T09:28:08.245Z,34.99
2023-05-05T09:29:08.220Z,34.52
2023-05-05T09:30:08.502Z,34.65
2023-05-05T09:31:08.418Z,34.34
2023-05-05T09:32:08.501Z,34.27
2023-05-05T09:33:08.321Z,35.20
2023-05-05T09:34:08.310Z,36.61
2023-05-05T09:35:08.436Z,36.50
2023-05-05T09:36:09.063Z,38.05
2023-05-05T09:37:09.035Z,37.68
2023-05-05T09:38:08.397Z,37.51
2023-05-05T09:39:08.367Z,37.01
2023-05-05T09:40:08.399Z,36.78
2023-05-05T09:41:08.594Z,36.50
2023-05-05T09:42:08.471Z,36.24
2023-05-05T09:43:08.531Z,36.19
2023-05-05T09:44:08.557Z,36.15
2023-05-05T09:45:09.155Z,35.96
2023-05-05T09:46:08.622Z,36.01
2023-05-05T09:47:18.483Z,35.57
2023-05-05T09:48:09.569Z,35.39
2023-05-05T09:49:08.551Z,35.17
2023-05-05T09:50:08.754Z,35.07
2023-05-05T09:51:08.536Z,35.03
2023-05-05T09:52:08.550Z,35.44
2023-05-05T09:53:08.664Z,35.00
2023-05-05T09:54:08.601Z,35.37
2023-05-05T09:55:08.489Z,35.18
2023-05-05T09:56:08.500Z,35.16
2023-05-05T09:57:08.517Z,34.72
2023-05-05T09:58:08.665Z,34.15
2023-05-05T09:59:08.780Z,34.44
2023-05-05T10:00:09.713Z,34.08
2023-05-05T10:01:09.583Z,34.48
2023-05-05T10:02:08.677Z,33.96
2023-05-05T10:03:08.860Z,33.72
2023-05-05T10:04:08.954Z,33.96
2023-05-05T10:05:09.026Z,33.60
2023-05-05T10:06:09.047Z,33.94
2023-05-05T10:07:09.090Z,34.09
2023-05-05T10:08:09.016Z,33.99
2023-05-05T10:09:09.162Z,34.00
2023-05-05T10:10:09.441Z,33.71
2023-05-05T10:11:09.332Z,33.44
2023-05-05T10:12:09.423Z,33.52
2023-05-05T10:13:09.483Z,33.49
2023-05-05T10:14:09.462Z,33.39
2023-05-05T10:15:09.540Z,33.38
2023-05-05T10:16:09.610Z,33.29
2023-05-05T10:17:09.556Z,33.35
2023-05-05T10:18:09.813Z,33.44
2023-05-05T10:19:09.762Z,33.75
2023-05-05T10:20:09.884Z,34.00
2023-05-05T10:21:09.808Z,33.97
2023-05-05T10:22:09.992Z,33.90
2023-05-05T10:23:09.941Z,33.72
2023-05-05T10:24:10.203Z,33.85
2023-05-05T10:25:10.015Z,33.82
2023-05-05T10:26:10.103Z,34.77
2023-05-05T10:27:11.564Z,35.74
2023-05-05T10:28:10.602Z,35.57
2023-05-05T10:29:10.292Z,35.85
2023-05-05T10:30:10.534Z,36.60
2023-05-05T10:31:24.501Z,36.73
2023-05-05T10:32:30.211Z,36.52
2023-05-05T10:33:30.147Z,36.23
2023-05-05T10:34:11.457Z,35.66
2023-05-05T10:35:10.528Z,35.47
2023-05-05T10:36:10.398Z,35.07
2023-05-05T10:37:10.390Z,34.90
2023-05-05T10:38:10.405Z,35.08
2023-05-05T10:39:10.325Z,35.13
2023-05-05T10:40:10.765Z,35.03
2023-05-05T10:41:10.316Z,34.90
2023-05-05T10:42:10.306Z,34.93
2023-05-05T10:43:10.514Z,34.97
2023-05-05T10:44:10.308Z,35.01
2023-05-05T10:45:10.547Z,35.03
2023-05-05T10:46:10.394Z,35.09
2023-05-05T10:47:10.302Z,35.12
2023-05-05T10:48:10.363Z,35.16
2023-05-05T10:49:11.758Z,35.23
2023-05-05T10:50:10.680Z,35.35
2023-05-05T10:51:10.246Z,35.43
2023-05-05T10:52:10.342Z,35.38
2023-05-05T10:53:10.248Z,35.39
2023-05-05T10:54:10.383Z,35.37
2023-05-05T10:55:10.243Z,35.33
2023-05-05T10:56:10.207Z,35.32
2023-05-05T10:57:10.221Z,35.29
2023-05-05T10:58:10.218Z,35.27
2023-05-05T10:59:10.203Z,35.25
2023-05-05T11:00:10.430Z,35.34
2023-05-05T11:01:10.211Z,35.34
2023-05-05T11:02:10.217Z,35.33
2023-05-05T11:03:10.309Z,35.30
2023-05-05T11:04:10.211Z,35.28
2023-05-05T11:05:10.192Z,35.19
2023-05-05T11:06:10.241Z,35.78
2023-05-05T11:07:13.813Z,35.85
2023-05-05T11:08:10.198Z,36.05
2023-05-05T11:09:10.194Z,35.61
2023-05-05T11:10:10.392Z,35.29
2023-05-05T11:11:10.203Z,35.15
2023-05-05T11:12:10.144Z,35.19
2023-05-05T11:13:10.215Z,35.15
2023-05-05T11:14:10.316Z,35.20
2023-05-05T11:15:10.103Z,35.15
2023-05-05T11:16:10.150Z,35.07
2023-05-05T11:17:10.128Z,35.40
2023-05-05T11:18:10.106Z,35.61
2023-05-05T11:19:10.083Z,35.77
2023-05-05T11:20:10.284Z,36.02
2023-05-05T11:21:10.176Z,35.80
2023-05-05T11:22:10.247Z,35.72
2023-05-05T11:23:10.304Z,35.81
2023-05-05T11:24:10.364Z,35.49
2023-05-05T11:25:10.390Z,35.33
2023-05-05T11:26:10.559Z,35.33
2023-05-05T11:27:10.527Z,35.47
2023-05-05T11:28:10.609Z,35.63
2023-05-05T11:29:10.632Z,35.68
2023-05-05T11:30:10.876Z,35.96
2023-05-05T11:31:10.822Z,36.57
2023-05-05T11:32:10.820Z,36.55
2023-05-05T11:33:10.865Z,36.33
2023-05-05T11:34:10.879Z,36.21
2023-05-05T11:35:10.969Z,35.82
2023-05-05T11:36:11.041Z,35.63
2023-05-05T11:37:11.080Z,35.40
2023-05-05T11:38:11.154Z,34.82
2023-05-05T11:39:11.179Z,35.29
2023-05-05T11:40:11.232Z,35.49
2023-05-05T11:41:11.284Z,35.54
2023-05-05T11:42:11.395Z,35.37
2023-05-05T11:43:11.418Z,35.73
2023-05-05T11:44:11.504Z,35.90
2023-05-05T11:45:11.511Z,35.87
2023-05-05T11:46:11.563Z,35.70
2023-05-05T11:47:11.619Z,35.86
2023-05-05T11:48:11.750Z,35.44
2023-05-05T11:49:11.731Z,35.78
2023-05-05T11:50:11.742Z,35.83
2023-05-05T11:51:11.812Z,35.07
2023-05-05T11:52:11.815Z,34.73
2023-05-05T11:53:11.848Z,34.31
2023-05-05T11:54:11.824Z,34.84
2023-05-05T11:55:11.894Z,34.96
2023-05-05T11:56:11.874Z,35.01
2023-05-05T11:57:11.863Z,35.47
2023-05-05T11:58:11.894Z,35.13
2023-05-05T11:59:11.893Z,34.97
2023-05-05T12:00:12.041Z,35.24
2023-05-05T12:01:11.964Z,36.03
2023-05-05T12:02:11.994Z,35.84
2023-05-05T12:03:12.104Z,35.47
2023-05-05T12:04:12.272Z,35.33
2023-05-05T12:05:12.126Z,36.06
2023-05-05T12:06:12.171Z,37.40
2023-05-05T12:07:12.180Z,35.01
2023-05-05T12:08:12.252Z,33.33
2023-05-05T12:09:12.283Z,35.01
2023-05-05T12:10:12.334Z,35.01
2023-05-05T12:11:12.344Z,34.10
2023-05-05T12:12:12.362Z,36.37
2023-05-05T12:13:12.438Z,36.65
2023-05-05T12:14:12.508Z,35.91
2023-05-05T12:15:12.543Z,36.11
2023-05-05T12:16:12.697Z,34.38
2023-05-05T12:17:12.660Z,37.06
2023-05-05T12:18:12.771Z,35.78
2023-05-05T12:19:12.736Z,36.03
2023-05-05T12:20:13.096Z,36.83
2023-05-05T12:21:12.795Z,37.09
2023-05-05T12:22:12.879Z,37.27
2023-05-05T12:23:12.921Z,37.36
2023-05-05T12:24:12.942Z,35.45
2023-05-05T12:25:12.960Z,35.65
2023-05-05T12:26:12.989Z,35.30
2023-05-05T12:27:13.002Z,35.51
2023-05-05T12:28:13.071Z,36.45
2023-05-05T12:29:13.115Z,37.40
2023-05-05T12:30:13.108Z,36.53
2023-05-05T12:31:13.288Z,37.22
2023-05-05T12:32:13.235Z,37.41
2023-05-05T12:33:13.232Z,37.36
2023-05-05T12:34:13.293Z,37.29
2023-05-05T12:35:13.342Z,37.11
2023-05-05T12:36:13.379Z,37.04
2023-05-05T12:37:13.391Z,36.74
2023-05-05T12:38:13.454Z,36.55
2023-05-05T12:39:13.494Z,36.74
2023-05-05T12:40:13.513Z,36.66
2023-05-05T12:41:13.518Z,36.61
2023-05-05T12:42:13.594Z,36.56
2023-05-05T12:43:13.624Z,36.37
2023-05-05T12:44:13.687Z,36.09
2023-05-05T12:45:13.739Z,35.97
2023-05-05T12:46:13.833Z,35.93
2023-05-05T12:47:13.842Z,35.86
2023-05-05T12:48:13.910Z,35.62
2023-05-05T12:49:14.075Z,35.52
2023-05-05T12:50:13.988Z,35.50
2023-05-05T12:51:14.063Z,35.52
2023-05-05T12:52:14.131Z,35.55